Time;durP1;ratioP1;P1;durP2;ratioP2;P2;SDS_P1;SDS_P2;PMS_P1;PMS_P2;Temp;Humidity;BMP_temperature;BMP_pressure;BME280_temperature;BME280_humidity;BME280_pressure;Samples;Min_cycle;Max_cycle;Signal;HPM_P1;HPM_P2
2022/07/02 06:16:50;;;;;;;2250.00;999.90;;;;;;;15.25;75.68;97255.69;2083246;28;20568;-59
2022/07/02 06:17:51;;;;;;;2250.00;999.90;;;;;;;15.34;74.93;97256.97;2068228;28;20238;-60
2022/07/02 06:18:53;;;;;;;2250.00;999.90;;;;;;;15.31;75.27;97233.44;2076920;28;20200;-60
2022/07/02 06:19:54;;;;;;;2250.00;999.90;;;;;;;15.42;75.33;97251.28;2074303;28;20220;-60
2022/07/02 06:20:56;;;;;;;2250.00;999.90;;;;;;;15.33;75.10;97257.91;2070423;28;20557;-60
2022/07/02 06:40:32;;;;;;;2250.00;999.90;;;;;;;16.14;71.57;97244.63;2082810;28;20580;-59
2022/07/02 06:42:55;;;;;;;2250.00;999.90;;;;;;;16.46;71.92;97243.69;2071818;28;20251;-60
2022/07/02 06:43:57;;;;;;;2250.00;999.90;;;;;;;15.76;70.92;97162.53;2085375;28;20207;-60
2022/07/02 06:44:58;;;;;;;2250.00;999.90;;;;;;;16.23;70.89;97251.16;2077800;28;20788;-60
2022/07/02 07:02:33;;;;;;;2250.00;999.90;;;;;;;17.17;68.26;97249.19;2080160;28;20565;-59
2022/07/02 07:03:34;;;;;;;2250.00;999.90;;;;;;;17.06;67.87;97205.81;2082466;28;20686;-60
2022/07/02 07:04:36;;;;;;;2250.00;999.90;;;;;;;17.32;67.19;97242.94;2081630;28;20207;-59
2022/07/02 07:05:39;;;;;;;2250.00;999.90;;;;;;;17.21;67.12;97240.13;2070410;28;20232;-60
2022/07/02 07:06:44;;;;;;;2250.00;999.90;;;;;;;16.88;67.24;97243.88;2070429;28;20255;-60
2022/07/02 07:22:40;;;;;;;2250.00;999.90;;;;;;;17.78;62.95;97224.16;2091119;27;20549;-59
2022/07/02 07:23:42;;;;;;;2250.00;999.90;;;;;;;17.63;62.77;97239.19;2093441;28;20199;-59
2022/07/02 07:24:43;;;;;;;2250.00;999.90;;;;;;;17.60;63.15;97235.94;2091923;28;20188;-60
2022/07/02 07:25:45;;;;;;;2250.00;999.90;;;;;;;17.73;61.29;97238.63;2081607;28;20208;-59
2022/07/02 07:26:47;;;;;;;2250.00;999.90;;;;;;;17.73;61.13;97235.97;2086643;28;20529;-60
2022/07/02 07:41:44;;;;;;;2250.00;999.90;;;;;;;18.60;60.51;97215.28;2091284;27;20557;-60
2022/07/02 07:42:46;;;;;;;2250.00;999.90;;;;;;;18.71;60.80;97235.72;2080949;28;20217;-61
2022/07/02 07:43:48;;;;;;;2250.00;999.90;;;;;;;18.86;61.10;97226.75;2087905;28;20192;-61
2022/07/02 07:44:49;;;;;;;2250.00;999.90;;;;;;;18.69;60.08;97227.91;2085402;28;21105;-60
2022/07/02 07:45:51;;;;;;;2250.00;999.90;;;;;;;18.98;60.80;97224.22;2075566;28;20227;-61
2022/07/02 08:00:15;;;;;;;2250.00;999.90;;;;;;;20.08;56.70;97200.53;2083756;28;20543;-61
2022/07/02 08:01:17;;;;;;;2250.00;999.90;;;;;;;19.95;56.65;97225.28;2082024;28;20564;-61
2022/07/02 08:02:19;;;;;;;2250.00;999.90;;;;;;;19.90;56.54;97217.66;2081859;28;20197;-61
2022/07/02 08:03:21;;;;;;;2250.00;999.90;;;;;;;20.02;56.42;97215.06;2080883;28;20248;-62
2022/07/02 08:04:24;;;;;;;2250.00;999.90;;;;;;;20.22;55.66;97210.94;2092153;28;20239;-62
2022/07/02 08:18:11;;;;;;;2250.00;999.90;;;;;;;19.88;51.48;97208.13;2090743;27;20577;-63
2022/07/02 08:19:12;;;;;;;2250.00;999.90;;;;;;;20.25;50.72;97184.19;2097703;28;20261;-63
2022/07/02 08:20:14;;;;;;;2250.00;999.90;;;;;;;20.56;49.63;97206.56;2091280;28;20639;-63
2022/07/02 08:21:15;;;;;;;2250.00;999.90;;;;;;;20.56;50.34;97173.91;2093522;28;20365;-63
2022/07/02 08:22:19;;;;;;;2250.00;999.90;;;;;;;20.92;48.20;97205.69;2092966;28;20727;-63
2022/07/02 08:35:30;;;;;;;2250.00;999.90;;;;;;;20.71;46.41;97203.75;2100979;27;20575;-62
2022/07/02 08:36:31;;;;;;;2250.00;999.90;;;;;;;20.98;47.27;97197.25;2106129;28;20199;-62
2022/07/02 08:37:33;;;;;;;2250.00;999.90;;;;;;;21.26;44.96;97201.22;2091363;28;20252;-62
2022/07/02 08:38:34;;;;;;;2250.00;999.90;;;;;;;21.64;44.89;97202.66;2100244;28;20788;-62
2022/07/02 08:39:36;;;;;;;2250.00;999.90;;;;;;;21.57;43.32;97196.13;2097501;28;20199;-62
2022/07/02 08:40:41;;;;;;;2250.00;999.90;;;;;;;21.73;42.98;97197.56;2081664;28;20624;-62
2022/07/02 08:55:14;;;;;;;2250.00;999.90;;;;;;;20.96;43.57;97167.31;2097683;28;20511;-60
2022/07/02 08:56:16;;;;;;;2250.00;999.90;;;;;;;21.23;41.27;97187.34;2100390;28;20192;-61
2022/07/02 08:57:20;;;;;;;2250.00;999.90;;;;;;;20.46;41.42;97175.56;2096295;28;20258;-60
2022/07/02 08:58:22;;;;;;;2250.00;999.90;;;;;;;20.04;42.29;97189.31;2088431;28;20236;-60
2022/07/02 08:59:25;;;;;;;2250.00;999.90;;;;;;;20.21;43.12;97183.59;2097168;28;20224;-61
2022/07/02 09:00:27;;;;;;;2250.00;999.90;;;;;;;20.30;42.85;97197.09;2090306;28;20584;-60
2022/07/02 09:14:31;;;;;;;2250.00;999.90;;;;;;;22.12;41.47;97121.63;2090233;28;20579;-61
2022/07/02 09:15:35;;;;;;;2250.00;999.90;;;;;;;22.55;40.59;97156.22;2087610;28;20643;-60
2022/07/02 09:16:38;;;;;;;2250.00;999.90;;;;;;;22.79;40.38;97146.16;2091487;28;20204;-61
2022/07/02 09:17:43;;;;;;;2250.00;999.90;;;;;;;23.14;39.91;97146.69;2078025;28;20200;-60
2022/07/02 09:18:45;;;;;;;2250.00;999.90;;;;;;;22.67;40.57;97150.69;2088543;28;20207;-61
2022/07/02 09:19:46;;;;;;;2250.00;999.90;;;;;;;22.11;41.03;97148.38;2086472;28;20204;-60
2022/07/02 09:20:49;;;;;;;2250.00;999.90;;;;;;;22.11;41.32;97159.00;2082905;28;20250;-60
2022/07/02 09:35:07;;;;;;;2250.00;999.90;;;;;;;21.00;38.80;97160.81;2103546;27;20580;-59
2022/07/02 09:36:11;;;;;;;2250.00;999.90;;;;;;;21.13;39.87;97163.34;2098560;28;20195;-60
2022/07/02 09:37:13;;;;;;;2250.00;999.90;;;;;;;21.03;39.19;97169.38;2095207;28;20206;-60
2022/07/02 09:38:15;;;;;;;2250.00;999.90;;;;;;;21.10;38.26;97169.72;2091458;28;20225;-59
2022/07/02 09:39:27;;;;;;;2250.00;999.90;;;;;;;21.22;39.34;97146.69;2104442;28;20210;-60
2022/07/02 09:40:28;;;;;;;2250.00;999.90;;;;;;;21.26;39.83;97174.66;2090858;28;20195;-59
2022/07/02 09:41:30;;;;;;;2250.00;999.90;;;;;;;21.11;40.25;97175.91;2090788;28;20658;-59
2022/07/02 09:42:33;;;;;;;2250.00;999.90;;;;;;;21.35;40.35;97165.13;2080927;28;20192;-60
2022/07/02 09:57:22;;;;;;;2250.00;999.90;;;;;;;21.37;39.83;97153.41;2094525;27;20590;-60
2022/07/02 09:58:25;;;;;;;2250.00;999.90;;;;;;;21.79;40.24;97167.84;2087798;28;20216;-60
2022/07/02 09:59:35;;;;;;;2250.00;999.90;;;;;;;21.88;39.79;97176.84;2096588;28;20199;-59
2022/07/02 10:00:44;;;;;;;2250.00;999.90;;;;;;;21.71;40.43;97172.94;2084249;28;20192;-60
2022/07/02 10:01:46;;;;;;;2250.00;999.90;;;;;;;22.06;40.84;97163.88;2084399;28;20194;-60
2022/07/02 10:02:52;;;;;;;2250.00;999.90;;;;;;;21.79;40.58;97151.91;2081562;28;20746;-59
2022/07/02 10:03:56;;;;;;;2250.00;999.90;;;;;;;21.95;40.98;97176.25;2094120;28;20226;-60
2022/07/02 10:04:57;;;;;;;2250.00;999.90;;;;;;;21.47;41.78;97156.19;2092946;28;20199;-60
2022/07/02 10:19:01;;;;;;;2250.00;999.90;;;;;;;21.87;41.84;97141.44;2085798;28;20569;-59
2022/07/02 10:20:03;;;;;;;2250.00;999.90;;;;;;;22.85;39.93;97146.59;2065488;28;20197;-60
2022/07/02 10:21:05;;;;;;;2250.00;999.90;;;;;;;23.61;39.74;97144.31;2068224;28;20202;-60
2022/07/02 10:22:08;;;;;;;2250.00;999.90;;;;;;;23.54;37.40;97151.19;2078613;28;20201;-60
2022/07/02 10:23:09;;;;;;;2250.00;999.90;;;;;;;23.18;38.61;97150.81;2066837;28;20225;-60
2022/07/02 10:24:11;;;;;;;2250.00;999.90;;;;;;;23.64;39.22;97145.84;2078015;28;20197;-60
2022/07/02 10:25:13;;;;;;;2250.00;999.90;;;;;;;23.92;37.62;97154.91;2071975;28;20202;-60
2022/07/02 10:26:15;;;;;;;2250.00;999.90;;;;;;;23.36;37.64;97150.16;2070138;28;20194;-60
2022/07/02 10:27:18;;;;;;;2250.00;999.90;;;;;;;23.16;36.06;97131.47;2070410;28;20200;-60
2022/07/02 10:28:20;;;;;;;2250.00;999.90;;;;;;;23.19;36.72;97160.47;2067339;28;20227;-60
2022/07/02 10:43:14;;;;;;;2250.00;999.90;;;;;;;22.26;36.75;97146.22;2079600;28;20580;-59
2022/07/02 10:44:15;;;;;;;2250.00;999.90;;;;;;;22.10;37.76;97144.84;2081065;28;20192;-62
2022/07/02 10:45:19;;;;;;;2250.00;999.90;;;;;;;22.00;37.67;97141.28;2075672;28;20216;-60
2022/07/02 10:46:24;;;;;;;2250.00;999.90;;;;;;;22.58;36.92;97143.50;2075347;28;20197;-60
2022/07/02 10:47:26;;;;;;;2250.00;999.90;;;;;;;23.32;36.25;97141.59;2071725;28;20728;-60
2022/07/02 10:48:27;;;;;;;2250.00;999.90;;;;;;;22.73;36.33;97136.03;2081024;28;20231;-60
2022/07/02 10:49:29;;;;;;;2250.00;999.90;;;;;;;23.09;36.99;97130.28;2073876;28;20198;-61
2022/07/02 10:50:55;;;;;;;2250.00;999.90;;;;;;;23.26;37.48;97136.81;2076257;28;20205;-61
2022/07/02 10:51:57;;;;;;;2250.00;999.90;;;;;;;22.99;37.82;97133.75;2075254;28;20197;-60
2022/07/02 10:53:27;;;;;;;2250.00;999.90;;;;;;;22.81;38.11;97136.19;2072980;28;20217;-61
2022/07/02 11:08:02;;;;;;;2250.00;999.90;;;;;;;23.11;38.68;97117.69;2083960;27;20923;-60
2022/07/02 11:09:04;;;;;;;2250.00;999.90;;;;;;;23.34;37.90;97082.84;2087162;28;20208;-60
2022/07/02 11:10:09;;;;;;;2250.00;999.90;;;;;;;24.57;37.03;97118.69;2072040;28;20208;-60
2022/07/02 11:11:13;;;;;;;2250.00;999.90;;;;;;;24.41;33.94;97114.00;2072062;28;20749;-60
2022/07/02 11:12:23;;;;;;;2250.00;999.90;;;;;;;23.46;36.33;97109.25;2079561;28;20196;-60
2022/07/02 11:13:34;;;;;;;2250.00;999.90;;;;;;;23.35;36.40;97111.16;2079683;28;20225;-60
2022/07/02 11:14:36;;;;;;;2250.00;999.90;;;;;;;24.02;35.90;97116.72;2078922;28;20204;-61
2022/07/02 11:15:41;;;;;;;2250.00;999.90;;;;;;;23.99;34.69;97114.34;2079069;28;20292;-60
2022/07/02 11:16:48;;;;;;;2250.00;999.90;;;;;;;24.37;34.94;97123.28;2079754;28;20192;-61
2022/07/02 11:17:51;;;;;;;2250.00;999.90;;;;;;;25.05;34.43;97116.88;2070552;28;20220;-61
2022/07/02 11:18:55;;;;;;;2250.00;999.90;;;;;;;24.44;36.13;97114.53;2087033;28;20205;-61
2022/07/02 11:33:52;;;;;;;2250.00;999.90;;;;;;;23.24;35.28;97099.66;2082488;28;20569;-59
2022/07/02 11:34:59;;;;;;;2250.00;999.90;;;;;;;23.02;35.69;97094.50;2077834;28;20644;-62
2022/07/02 11:36:00;;;;;;;2250.00;999.90;;;;;;;22.94;35.92;97085.41;2078706;28;20197;-60
2022/07/02 11:37:02;;;;;;;2250.00;999.90;;;;;;;22.99;36.65;97082.31;2078554;28;20606;-60
2022/07/02 11:38:04;;;;;;;2250.00;999.90;;;;;;;23.82;36.85;97098.03;2072299;28;20594;-60
2022/07/02 11:39:18;;;;;;;2250.00;999.90;;;;;;;25.13;35.24;97100.94;2086197;28;20204;-61
2022/07/02 11:40:21;;;;;;;2250.00;999.90;;;;;;;25.62;34.02;97092.63;2071896;28;20193;-61
2022/07/02 11:41:29;;;;;;;2250.00;999.90;;;;;;;25.51;33.63;97100.88;2071715;28;20197;-60
2022/07/02 11:42:36;;;;;;;2250.00;999.90;;;;;;;25.44;33.58;97097.97;2059681;28;20204;-60
2022/07/02 11:43:38;;;;;;;2250.00;999.90;;;;;;;24.62;33.46;97081.75;2069744;28;20202;-60
2022/07/02 11:44:39;;;;;;;2250.00;999.90;;;;;;;25.10;33.53;97098.56;2068011;28;20280;-60
2022/07/02 11:58:59;;;;;;;2250.00;999.90;;;;;;;23.51;35.25;97087.50;2085346;28;20553;-60
2022/07/02 12:00:01;;;;;;;2250.00;999.90;;;;;;;23.54;35.98;97092.56;2080965;28;20644;-59
2022/07/02 12:01:02;;;;;;;2250.00;999.90;;;;;;;22.90;35.74;97083.13;2082964;28;20204;-59
2022/07/02 12:02:04;;;;;;;2250.00;999.90;;;;;;;24.54;35.14;97074.47;2083727;28;20192;-60
2022/07/02 12:03:10;;;;;;;2250.00;999.90;;;;;;;25.33;33.33;97050.06;2070257;28;20258;-59
2022/07/02 12:04:13;;;;;;;2250.00;999.90;;;;;;;25.36;32.98;97071.19;2080235;28;20201;-60
2022/07/02 12:05:17;;;;;;;2250.00;999.90;;;;;;;25.45;33.58;97080.94;2072392;28;20363;-62
2022/07/02 12:06:18;;;;;;;2250.00;999.90;;;;;;;24.92;34.37;97087.84;2073063;28;20201;-62
2022/07/02 12:07:20;;;;;;;2250.00;999.90;;;;;;;24.66;33.47;97076.97;2072794;28;20201;-62
2022/07/02 12:08:22;;;;;;;2250.00;999.90;;;;;;;24.84;34.25;97077.06;2068667;28;20227;-63
2022/07/02 12:09:24;;;;;;;2250.00;999.90;;;;;;;24.70;34.23;97068.53;2077103;28;20193;-63
2022/07/02 12:10:26;;;;;;;2250.00;999.90;;;;;;;24.68;34.76;97069.69;2073283;28;20699;-63
2022/07/02 12:24:51;;;;;;;2250.00;999.90;;;;;;;26.98;31.36;97022.63;2101744;27;20548;-62
2022/07/02 12:25:53;;;;;;;2250.00;999.90;;;;;;;27.75;30.78;97045.72;2100015;28;20810;-62
2022/07/02 12:26:57;;;;;;;2250.00;999.90;;;;;;;28.07;29.28;97048.59;2097761;28;20187;-61
2022/07/02 12:29:52;;;;;;;2250.00;999.90;;;;;;;26.76;30.58;97045.47;2075931;28;20236;-61
2022/07/02 12:30:52;;;;;;;2250.00;999.90;;;;;;;25.98;32.50;97033.78;2079884;28;20691;-60
2022/07/02 12:32:04;;;;;;;2250.00;999.90;;;;;;;25.49;31.46;97034.22;2083680;28;20192;-61
2022/07/02 12:33:05;;;;;;;2250.00;999.90;;;;;;;25.52;31.51;97030.38;2087389;28;20894;-60
2022/07/02 12:34:06;;;;;;;2250.00;999.90;;;;;;;24.50;34.44;97030.38;2089982;28;20204;-61
2022/07/02 12:35:12;;;;;;;2250.00;999.90;;;;;;;25.68;33.33;97022.50;2091244;28;20192;-61
2022/07/02 12:36:13;;;;;;;2250.00;999.90;;;;;;;26.89;31.72;97032.50;2091143;28;20196;-61
2022/07/02 12:37:27;;;;;;;2250.00;999.90;;;;;;;27.84;31.26;97028.63;2091936;28;20199;-61
2022/07/02 12:52:02;;;;;;;2266.67;999.90;;;;;;;27.63;28.59;97020.25;2068437;27;1223217;-61
2022/07/02 12:53:07;;;;;;;2250.00;999.90;;;;;;;26.68;29.45;97018.66;2087661;28;20228;-61
2022/07/02 12:54:08;;;;;;;2250.00;999.90;;;;;;;26.29;30.90;97013.78;2080671;28;20207;-61
2022/07/02 12:55:27;;;;;;;2250.00;999.90;;;;;;;27.46;29.01;97014.03;2082782;28;20578;-61
2022/07/02 12:56:39;;;;;;;2250.00;999.90;;;;;;;27.75;28.90;97016.22;2085108;28;20228;-61
2022/07/02 12:57:40;;;;;;;2250.00;999.90;;;;;;;28.48;28.14;97014.47;2068785;28;20227;-61
2022/07/02 12:58:42;;;;;;;2250.00;999.90;;;;;;;28.13;28.34;97015.72;2077971;28;20201;-61
2022/07/02 12:59:45;;;;;;;2250.00;999.90;;;;;;;28.61;27.24;97010.41;2077193;28;20197;-61
2022/07/02 13:00:47;;;;;;;2250.00;999.90;;;;;;;26.61;29.38;97014.94;2073611;28;20190;-61
2022/07/02 13:01:48;;;;;;;2250.00;999.90;;;;;;;27.04;29.78;97005.06;2075924;28;20659;-62
2022/07/02 13:03:20;;;;;;;2250.00;999.90;;;;;;;27.46;28.62;97004.16;2069756;28;20266;-61
2022/07/02 13:04:22;;;;;;;2250.00;999.90;;;;;;;27.98;28.41;97011.00;2084876;28;20894;-61
2022/07/02 13:18:17;;;;;;;2250.00;999.90;;;;;;;27.19;29.59;96987.34;2096682;27;21113;-60
2022/07/02 13:19:18;;;;;;;2250.00;999.90;;;;;;;26.51;30.89;96988.28;2103310;28;20204;-61
2022/07/02 13:20:20;;;;;;;2250.00;999.90;;;;;;;27.11;29.82;96992.69;2088707;28;20204;-61
2022/07/02 13:21:21;;;;;;;2250.00;999.90;;;;;;;25.78;30.18;96998.34;2085980;28;20219;-61
2022/07/02 13:22:26;;;;;;;2250.00;999.90;;;;;;;26.96;29.44;96987.13;2086769;28;20201;-61
2022/07/02 13:23:27;;;;;;;2250.00;999.90;;;;;;;26.72;28.79;96985.19;2087282;28;20645;-61
2022/07/02 13:24:29;;;;;;;2250.00;999.90;;;;;;;26.25;30.39;96967.75;2091464;28;20594;-61
2022/07/02 13:25:30;;;;;;;2250.00;999.90;;;;;;;27.49;29.33;96985.06;2090058;28;20400;-62
2022/07/02 13:26:37;;;;;;;2250.00;999.90;;;;;;;25.46;30.67;96986.41;2088042;28;20639;-61
2022/07/02 13:27:40;;;;;;;2250.00;999.90;;;;;;;25.16;31.39;96974.25;2082748;28;20196;-61
2022/07/02 13:28:41;;;;;;;2250.00;999.90;;;;;;;26.26;30.33;96973.94;2106571;28;20191;-61
2022/07/02 13:29:42;;;;;;;2250.00;999.90;;;;;;;26.80;30.26;96971.00;2103489;28;20665;-62
2022/07/02 13:30:44;;;;;;;2250.00;999.90;;;;;;;26.34;31.16;96974.81;2090385;28;20683;-61
2022/07/02 13:44:30;;;;;;;2250.00;999.90;;;;;;;27.25;30.46;96966.22;2100198;27;21065;-62
2022/07/02 13:45:32;;;;;;;2250.00;999.90;;;;;;;27.03;30.55;96968.53;2094364;28;20200;-61
2022/07/02 13:46:34;;;;;;;2250.00;999.90;;;;;;;25.52;31.01;96969.75;2095091;28;20196;-61
2022/07/02 13:47:35;;;;;;;2250.00;999.90;;;;;;;25.23;31.68;96962.78;2084665;28;20192;-61
2022/07/02 13:48:37;;;;;;;2250.00;999.90;;;;;;;26.06;30.82;96958.94;2094307;28;20250;-60
2022/07/02 13:49:38;;;;;;;2250.00;999.90;;;;;;;26.55;30.40;96952.13;2084331;28;20223;-62
2022/07/02 13:50:40;;;;;;;2250.00;999.90;;;;;;;27.15;30.36;96951.16;2078133;28;20692;-61
2022/07/02 13:51:42;;;;;;;2250.00;999.90;;;;;;;27.15;30.14;96950.34;2078079;28;20348;-60
2022/07/02 13:52:43;;;;;;;2250.00;999.90;;;;;;;27.01;30.04;96947.28;2080629;28;20248;-61
2022/07/02 13:53:45;;;;;;;2250.00;999.90;;;;;;;26.29;30.81;96954.91;2086812;28;20203;-60
2022/07/02 13:54:47;;;;;;;2250.00;999.90;;;;;;;26.94;29.93;96959.66;2086798;28;20196;-61
2022/07/02 13:55:49;;;;;;;2250.00;999.90;;;;;;;26.72;30.53;96961.09;2086947;28;20610;-61
2022/07/02 13:56:50;;;;;;;2250.00;999.90;;;;;;;25.67;30.01;96961.16;2086791;28;20200;-62
2022/07/02 14:06:21;;;;;;;2250.00;999.90;;;;;;;27.13;31.29;96965.72;2101655;27;20564;-60
2022/07/02 14:07:23;;;;;;;2250.00;999.90;;;;;;;28.09;30.40;96956.19;2094999;28;20219;-61
2022/07/02 14:08:24;;;;;;;2250.00;999.90;;;;;;;28.78;29.95;96965.53;2084039;28;20246;-61
2022/07/02 14:09:26;;;;;;;2250.00;999.90;;;;;;;29.26;29.73;96954.66;2094314;28;20682;-60
2022/07/02 14:10:28;;;;;;;2250.00;999.90;;;;;;;29.71;29.46;96954.81;2078455;28;20204;-60
2022/07/02 14:11:30;;;;;;;2250.00;999.90;;;;;;;29.97;28.89;96957.13;2078485;28;20196;-60
2022/07/02 14:12:32;;;;;;;2250.00;999.90;;;;;;;30.06;28.60;96947.91;2078192;28;20715;-60
2022/07/02 14:13:33;;;;;;;2250.00;999.90;;;;;;;28.75;27.82;96961.34;2078447;28;20201;-60
2022/07/02 14:14:36;;;;;;;2250.00;999.90;;;;;;;27.29;30.71;96949.66;2078516;28;20701;-60
2022/07/02 14:15:38;;;;;;;2250.00;999.90;;;;;;;27.52;29.75;96951.72;2075983;28;20707;-60
2022/07/02 14:16:40;;;;;;;2250.00;999.90;;;;;;;27.19;30.71;96938.28;2078638;28;20200;-60
2022/07/02 14:17:41;;;;;;;2250.00;999.90;;;;;;;27.23;30.75;96926.19;2073080;28;20231;-60
2022/07/02 14:18:43;;;;;;;2250.00;999.90;;;;;;;26.77;30.89;96945.38;2094375;28;20254;-60
2022/07/02 14:19:45;;;;;;;2250.00;999.90;;;;;;;26.67;30.82;96937.47;2089764;28;20396;-60
2022/07/02 14:20:50;;;;;;;2250.00;999.90;;;;;;;26.15;31.54;96950.97;2078584;28;20466;-61
2022/07/02 14:21:54;;;;;;;2250.00;999.90;;;;;;;26.71;31.11;96941.47;2078298;28;20644;-60
2022/07/02 14:22:56;;;;;;;2250.00;999.90;;;;;;;26.91;31.30;96943.09;2076734;28;20299;-60
2022/07/02 14:23:57;;;;;;;2250.00;999.90;;;;;;;26.80;30.80;96942.38;2094402;28;20706;-60
2022/07/02 14:25:00;;;;;;;2250.00;999.90;;;;;;;26.87;30.90;96938.03;2085892;28;20209;-61
2022/07/02 14:26:02;;;;;;;2250.00;999.90;;;;;;;26.54;32.52;96931.75;2077438;28;20209;-60
2022/07/02 14:27:04;;;;;;;2250.00;999.90;;;;;;;26.18;33.67;96938.13;2078231;28;20200;-60
2022/07/02 14:28:05;;;;;;;2250.00;999.90;;;;;;;26.24;34.13;96934.81;2077896;28;20215;-60
2022/07/02 14:29:06;;;;;;;2250.00;999.90;;;;;;;25.72;33.46;96937.47;2094219;28;20234;-60
2022/07/02 14:30:08;;;;;;;2250.00;999.90;;;;;;;25.08;34.29;96927.75;2083373;28;20193;-60
2022/07/02 14:31:10;;;;;;;2250.00;999.90;;;;;;;25.78;34.74;96926.16;2078079;28;20204;-61
2022/07/02 14:32:12;;;;;;;2250.00;999.90;;;;;;;26.07;33.91;96928.53;2078551;28;20535;-60
2022/07/02 14:33:18;;;;;;;2250.00;999.90;;;;;;;26.40;33.41;96920.63;2076697;28;20850;-60
2022/07/02 14:34:19;;;;;;;2250.00;999.90;;;;;;;26.19;32.67;96906.84;2077726;28;20224;-61
2022/07/02 14:35:20;;;;;;;2250.00;999.90;;;;;;;26.18;32.88;96927.41;2077656;28;20212;-60
2022/07/02 14:36:22;;;;;;;2250.00;999.90;;;;;;;27.35;32.47;96910.63;2078436;28;20210;-61
2022/07/02 14:37:26;;;;;;;2250.00;999.90;;;;;;;27.79;31.64;96922.84;2078427;28;20201;-60
2022/07/02 14:38:28;;;;;;;2250.00;999.90;;;;;;;28.39;31.25;96897.38;2077099;28;20213;-61
2022/07/02 14:39:30;;;;;;;2250.00;999.90;;;;;;;27.54;32.18;96915.69;2078381;28;20220;-61
2022/07/02 14:40:32;;;;;;;2250.00;999.90;;;;;;;28.26;31.14;96918.56;2078311;28;20209;-61
2022/07/02 14:41:34;;;;;;;2250.00;999.90;;;;;;;27.18;31.45;96874.94;2078278;28;20204;-61
2022/07/02 14:42:37;;;;;;;2250.00;999.90;;;;;;;28.06;31.76;96912.75;2070652;28;20572;-61
2022/07/02 14:43:38;;;;;;;2250.00;999.90;;;;;;;28.60;30.79;96915.53;2093299;28;20204;-60
2022/07/02 14:44:40;;;;;;;2250.00;999.90;;;;;;;27.00;32.57;96901.91;2090837;28;20656;-60
2022/07/02 14:45:42;;;;;;;2250.00;999.90;;;;;;;27.88;31.63;96912.94;2078340;28;20205;-61
2022/07/02 14:46:44;;;;;;;2250.00;999.90;;;;;;;27.73;31.75;96915.47;2078229;28;20675;-60
2022/07/02 14:47:45;;;;;;;2250.00;999.90;;;;;;;26.96;32.21;96906.75;2073743;28;20287;-60
2022/07/02 14:48:47;;;;;;;2250.00;999.90;;;;;;;27.01;32.76;96906.28;2092024;28;20196;-60
2022/07/02 14:49:49;;;;;;;2250.00;999.90;;;;;;;27.33;32.06;96916.16;2088427;28;20197;-61
2022/07/02 14:50:50;;;;;;;2250.00;999.90;;;;;;;26.94;32.70;96902.56;2077915;28;20288;-61
2022/07/02 14:51:53;;;;;;;2250.00;999.90;;;;;;;25.36;34.41;96911.66;2078471;28;20212;-60
2022/07/02 14:52:55;;;;;;;2250.00;999.90;;;;;;;25.69;34.37;96903.88;2077959;28;20228;-60
2022/07/02 14:54:00;;;;;;;2250.00;999.90;;;;;;;25.98;33.68;96904.53;2078171;28;20202;-61
2022/07/02 14:55:04;;;;;;;2250.00;999.90;;;;;;;25.72;34.53;96897.38;2078182;28;20255;-60
2022/07/02 14:56:06;;;;;;;2250.00;999.90;;;;;;;26.65;33.25;96891.28;2078298;28;20197;-61
2022/07/02 14:57:07;;;;;;;2250.00;999.90;;;;;;;26.16;33.65;96893.78;2077976;28;20267;-60
2022/07/02 14:58:09;;;;;;;2250.00;999.90;;;;;;;26.53;33.73;96897.94;2079897;28;20220;-61
2022/07/02 14:59:12;;;;;;;2250.00;999.90;;;;;;;26.69;34.21;96900.66;2092740;28;20196;-61
2022/07/02 15:00:14;;;;;;;2250.00;999.90;;;;;;;26.51;33.27;96882.03;2081468;28;20667;-61
2022/07/02 15:01:16;;;;;;;2250.00;999.90;;;;;;;26.58;32.75;96892.09;2078180;28;20192;-61
2022/07/02 15:02:17;;;;;;;2250.00;999.90;;;;;;;26.66;33.55;96897.47;2078257;28;20262;-61
2022/07/02 15:03:19;;;;;;;2250.00;999.90;;;;;;;27.20;32.28;96884.50;2082218;28;20305;-61
2022/07/02 15:04:20;;;;;;;2250.00;999.90;;;;;;;27.64;31.71;96894.06;2093820;28;20192;-61
2022/07/02 15:05:22;;;;;;;2250.00;999.90;;;;;;;27.10;32.67;96889.19;2079489;28;20213;-61
2022/07/02 15:06:23;;;;;;;2250.00;999.90;;;;;;;27.72;31.71;96879.78;2078388;28;20205;-61
2022/07/02 15:07:25;;;;;;;2250.00;999.90;;;;;;;27.97;30.71;96893.97;2077654;28;20204;-62
2022/07/02 15:08:27;;;;;;;2250.00;999.90;;;;;;;26.77;33.14;96866.91;2079492;28;20673;-62
2022/07/02 15:09:28;;;;;;;2250.00;999.90;;;;;;;27.41;32.39;96890.38;2086286;28;20189;-62
2022/07/02 15:10:30;;;;;;;2250.00;999.90;;;;;;;27.16;32.12;96882.31;2086634;28;20203;-62
2022/07/02 15:11:34;;;;;;;2250.00;999.90;;;;;;;27.79;31.10;96896.84;2088473;28;20204;-63
2022/07/02 15:12:43;;;;;;;2250.00;999.90;;;;;;;27.09;32.52;96895.53;2085753;28;20265;-61
2022/07/02 15:16:26;;;;;;;2250.00;999.90;;;;;;;25.95;34.23;96886.13;2085194;28;20189;-61
2022/07/02 15:17:28;;;;;;;2250.00;999.90;;;;;;;26.68;33.21;96879.41;2072703;28;20197;-61
2022/07/02 15:18:32;;;;;;;2250.00;999.90;;;;;;;26.84;32.79;96879.47;2096515;28;20195;-61
2022/07/02 15:19:33;;;;;;;2250.00;999.90;;;;;;;26.82;31.54;96865.38;2094486;28;20207;-61
2022/07/02 15:20:42;;;;;;;2250.00;999.90;;;;;;;25.83;34.16;96875.72;2080498;28;20193;-61
2022/07/02 15:21:47;;;;;;;2250.00;999.90;;;;;;;25.75;34.83;96886.38;2080269;28;20809;-61
2022/07/02 15:22:51;;;;;;;2250.00;999.90;;;;;;;26.25;33.40;96879.44;2076301;28;20223;-61
2022/07/02 15:23:55;;;;;;;2250.00;999.90;;;;;;;26.04;33.51;96883.34;2096447;28;20566;-61
2022/07/02 15:25:02;;;;;;;2250.00;999.90;;;;;;;26.01;33.58;96874.78;2088675;28;20205;-61
2022/07/02 15:26:04;;;;;;;2250.00;999.90;;;;;;;26.22;33.27;96875.25;2079584;28;20197;-61
2022/07/02 15:27:09;;;;;;;2250.00;999.90;;;;;;;26.56;33.47;96866.31;2080587;28;20197;-61
2022/07/02 15:28:20;;;;;;;2250.00;999.90;;;;;;;26.80;32.71;96870.06;2082735;28;20223;-60
2022/07/02 15:29:23;;;;;;;2250.00;999.90;;;;;;;26.49;32.68;96835.84;2096258;28;20192;-61
2022/07/02 15:30:30;;;;;;;2250.00;999.90;;;;;;;26.54;33.34;96864.81;2080795;28;20254;-61
2022/07/02 15:31:32;;;;;;;2250.00;999.90;;;;;;;26.69;33.17;96868.53;2079751;28;20204;-61
2022/07/02 15:32:34;;;;;;;2250.00;999.90;;;;;;;27.07;32.67;96870.78;2080195;28;20225;-61
2022/07/02 15:33:36;;;;;;;2250.00;999.90;;;;;;;25.88;33.60;96867.22;2080719;28;20201;-61
2022/07/02 15:34:42;;;;;;;2250.00;999.90;;;;;;;26.14;33.13;96867.19;2080452;28;20205;-61
2022/07/02 15:35:44;;;;;;;2250.00;999.90;;;;;;;26.64;33.20;96864.63;2080299;28;20587;-61
2022/07/02 15:36:49;;;;;;;2250.00;999.90;;;;;;;26.35;34.00;96872.13;2079068;28;20204;-61
2022/07/02 15:37:51;;;;;;;2250.00;999.90;;;;;;;27.58;32.45;96869.75;2072308;28;20220;-61
2022/07/02 15:38:55;;;;;;;2250.00;999.90;;;;;;;26.70;32.67;96853.28;2096480;28;20207;-61
2022/07/02 15:39:56;;;;;;;2250.00;999.90;;;;;;;26.52;33.43;96872.97;2088397;28;20212;-61
2022/07/02 15:40:59;;;;;;;2250.00;999.90;;;;;;;26.42;33.47;96877.66;2080282;28;20200;-61
2022/07/02 15:42:01;;;;;;;2250.00;999.90;;;;;;;26.94;32.89;96881.13;2080600;28;20657;-62
2022/07/02 15:43:05;;;;;;;2250.00;999.90;;;;;;;27.81;32.17;96862.66;2080280;28;20219;-61
2022/07/02 15:44:07;;;;;;;2250.00;999.90;;;;;;;28.18;31.17;96863.88;2096306;28;20694;-61
2022/07/02 15:45:09;;;;;;;2250.00;999.90;;;;;;;27.69;30.93;96866.69;2082771;28;20672;-60
2022/07/02 15:46:12;;;;;;;2250.00;999.90;;;;;;;26.79;32.90;96860.38;2080423;28;20235;-61
2022/07/02 15:47:13;;;;;;;2250.00;999.90;;;;;;;26.38;33.14;96862.91;2080415;28;20279;-60